Maersk Regensburg — VREN6 — position and weather

sailwx.info

Track history (hours):
 
Tides and Currents Weather Stations Pressure Air Temp Water Temp Dewpoint Dewpoint Depression Visibility Wind Speed Wind Dir Waves Ship Positions

Maersk Regensburg

Last reported at 2017-Nov-11 14:13 UTC. Time now 2017-Nov-23 04:00 UTC.
Position N 25°28' W 016°02'.
Warning: this ship's position is 11 days out of date.

Length 148 m; draft 8.4 m.

Type: Cargo ship. MMSI: 477143400.

Date/timePositionNaut miles runAvg speedWind from/ knotsBaromVisibWave heightAir tempDewpointWater temp
2017-Nov-11 14:13N 25°28' W 016°02'2 9.9
2017-Nov-11 14:00N 25°30' W 016°00'1610.3
2017-Nov-11 12:26N 25°43' W 015°50'1110.5
2017-Nov-11 11:24N 25°51' W 015°42'410.7
2017-Nov-11 11:00N 25°55' W 015°40'610.8
2017-Nov-11 10:28N 25°59' W 015°36'510.9
2017-Nov-11 10:01N 26°03' W 015°32'611.2
2017-Nov-11 09:30N 26°08' W 015°29'4110.4
2017-Nov-11 05:36N 26°38' W 014°59'110.0
2017-Nov-11 05:30N 26°39' W 014°58'6 9.8
2017-Nov-11 04:51N 26°44' W 014°53'3 9.8
2017-Nov-11 04:31N 26°46' W 014°50'5 9.9
2017-Nov-11 04:00N 26°49' W 014°46'510.0
2017-Nov-11 03:31N 26°53' W 014°42'510.1
2017-Nov-11 03:00N 26°56' W 014°38'510.2
2017-Nov-11 02:31N 26°60' W 014°34'510.4
2017-Nov-11 02:00N 27°04' W 014°30'510.4
2017-Nov-11 01:30N 27°08' W 014°26'510.4
2017-Nov-11 01:00N 27°12' W 014°22'510.2
2017-Nov-11 00:30N 27°16' W 014°19'5 9.9
2017-Nov-11 00:00N 27°19' W 014°15'510.0
2017-Nov-10 23:30N 27°22' W 014°10'510.5
2017-Nov-10 23:00N 27°26' W 014°06'510.9
2017-Nov-10 22:30N 27°30' W 014°02'611.1
2017-Nov-10 22:00N 27°34' W 013°57'611.2
2017-Nov-10 21:30N 27°38' W 013°53'611.1
2017-Nov-10 21:01N 27°41' W 013°48'510.9
2017-Nov-10 20:30N 27°45' W 013°44'510.7
2017-Nov-10 20:01N 27°49' W 013°40'510.4
2017-Nov-10 19:30N 27°53' W 013°36'510.2
2017-Nov-10 19:00N 27°57' W 013°32'510.3
2017-Nov-10 18:30N 28°01' W 013°28'1010.4
2017-Nov-10 17:31N 28°09' W 013°22'010.4
2017-Nov-10 17:30N 28°09' W 013°22'5 9.9
2017-Nov-10 17:00N 28°14' W 013°19'5 9.9
2017-Nov-10 16:30N 28°18' W 013°15'510.3
2017-Nov-10 16:00N 28°22' W 013°12'510.4
2017-Nov-10 15:30N 28°26' W 013°09'510.4
2017-Nov-10 15:00N 28°31' W 013°06'510.5
2017-Nov-10 14:30N 28°35' W 013°03'610.4
2017-Nov-10 13:57N 28°40' W 012°59'810.3
2017-Nov-10 13:10N 28°47' W 012°54'410.3
2017-Nov-10 12:48N 28°50' W 012°52'410.2
2017-Nov-10 12:24N 28°54' W 012°50'410.2
2017-Nov-10 12:01N 28°57' W 012°47'510.1
2017-Nov-10 11:29N 29°01' W 012°43'510.1
2017-Nov-10 11:00N 29°05' W 012°40'610.2
2017-Nov-10 10:23N 29°10' W 012°36'510.2
2017-Nov-10 09:53N 29°15' W 012°33'410.3
2017-Nov-10 09:30N 29°18' W 012°31'510.4
2017-Nov-10 09:00N 29°22' W 012°28'510.3
2017-Nov-10 08:30N 29°27' W 012°24'510.2
2017-Nov-10 08:00N 29°31' W 012°21'510.3
2017-Nov-10 07:29N 29°35' W 012°18'1210.4
2017-Nov-10 06:18N 29°45' W 012°09'4710.3
2017-Nov-10 01:42N 30°26' W 011°41'910.5
2017-Nov-10 00:48N 30°34' W 011°35'310.8
2017-Nov-10 00:31N 30°36' W 011°33'910.6
2017-Nov-09 23:41N 30°43' W 011°27'210.7
2017-Nov-09 23:30N 30°45' W 011°26'6810.6
2017-Nov-09 17:03N 31°42' W 010°42'010.2
2017-Nov-09 17:00N 31°42' W 010°42'810.0
2017-Nov-09 16:13N 31°49' W 010°37'310.1
2017-Nov-09 15:58N 31°51' W 010°36'2710.1
2017-Nov-09 13:17N 32°14' W 010°19'310.3
2017-Nov-09 13:00N 32°17' W 010°17'610.2
2017-Nov-09 12:25N 32°22' W 010°13'510.3
2017-Nov-09 11:55N 32°26' W 010°10'410.2
2017-Nov-09 11:30N 32°29' W 010°06'510.2
2017-Nov-09 11:00N 32°33' W 010°03'510.2
2017-Nov-09 10:29N 32°38' W 009°59'3410.4
2017-Nov-09 07:11N 33°05' W 009°35'710.2
2017-Nov-09 06:28N 33°10' W 009°28'510.2
2017-Nov-09 06:01N 33°13' W 009°24'610.3
2017-Nov-09 05:24N 33°18' W 009°19'610.4
2017-Nov-09 04:47N 33°22' W 009°14'251 6.7
2017-Nov-07 15:18N 36°08' W 005°25'0 0.0
2017-Nov-07 14:51N 36°08' W 005°25'0 0.1
2017-Nov-07 14:16N 36°08' W 005°25'1 2.6
2017-Nov-07 13:57N 36°09' W 005°25'1 2.1
2017-Nov-07 13:27N 36°08' W 005°26'0 0.0
2017-Nov-07 13:00N 36°08' W 005°26'0 0.0
2017-Nov-07 12:24N 36°08' W 005°26'0 0.0
2017-Nov-07 12:00N 36°08' W 005°26'0 0.0
2017-Nov-07 11:21N 36°08' W 005°26'0 0.0
2017-Nov-07 11:00N 36°08' W 005°26'0 0.0
2017-Nov-07 10:30N 36°08' W 005°26'0 0.0
2017-Nov-07 10:00N 36°08' W 005°26'0 0.0
2017-Nov-07 09:30N 36°08' W 005°26'0 0.0
2017-Nov-07 08:51N 36°08' W 005°26'0 0.0
2017-Nov-07 08:30N 36°08' W 005°26'0 0.0
2017-Nov-07 07:57N 36°08' W 005°26'0 0.0
2017-Nov-07 07:30N 36°08' W 005°26'8 0.2
2017-Nov-05 15:57N 36°01' W 005°22'  
2017-Nov-03 01:29N 27°50' W 013°39'  
Track history (hours):
 
Tides and Currents Weather Stations Pressure Air Temp Water Temp Dewpoint Dewpoint Depression Visibility Wind Speed Wind Dir Waves Ship Positions

Maersk Regensburg

Last reported at 2017-Nov-11 14:13 UTC. Time now 2017-Nov-23 04:00 UTC.
Position N 25°28' W 016°02'.
Warning: this ship's position is 11 days out of date.

Length 148 m; draft 8.4 m.

Type: Cargo ship. MMSI: 477143400.

Date/timePositionNaut miles runAvg speedWind from/ knotsBaromVisibWave heightAir tempDewpointWater temp
2017-Nov-11 14:13N 25°28' W 016°02'2 9.9
2017-Nov-11 14:00N 25°30' W 016°00'1610.3
2017-Nov-11 12:26N 25°43' W 015°50'1110.5
2017-Nov-11 11:24N 25°51' W 015°42'410.7
2017-Nov-11 11:00N 25°55' W 015°40'610.8
2017-Nov-11 10:28N 25°59' W 015°36'510.9
2017-Nov-11 10:01N 26°03' W 015°32'611.2
2017-Nov-11 09:30N 26°08' W 015°29'4110.4
2017-Nov-11 05:36N 26°38' W 014°59'110.0
2017-Nov-11 05:30N 26°39' W 014°58'6 9.8
2017-Nov-11 04:51N 26°44' W 014°53'3 9.8
2017-Nov-11 04:31N 26°46' W 014°50'5 9.9
2017-Nov-11 04:00N 26°49' W 014°46'510.0
2017-Nov-11 03:31N 26°53' W 014°42'510.1
2017-Nov-11 03:00N 26°56' W 014°38'510.2
2017-Nov-11 02:31N 26°60' W 014°34'510.4
2017-Nov-11 02:00N 27°04' W 014°30'510.4
2017-Nov-11 01:30N 27°08' W 014°26'510.4
2017-Nov-11 01:00N 27°12' W 014°22'510.2
2017-Nov-11 00:30N 27°16' W 014°19'5 9.9
2017-Nov-11 00:00N 27°19' W 014°15'510.0
2017-Nov-10 23:30N 27°22' W 014°10'510.5
2017-Nov-10 23:00N 27°26' W 014°06'510.9
2017-Nov-10 22:30N 27°30' W 014°02'611.1
2017-Nov-10 22:00N 27°34' W 013°57'611.2
2017-Nov-10 21:30N 27°38' W 013°53'611.1
2017-Nov-10 21:01N 27°41' W 013°48'510.9
2017-Nov-10 20:30N 27°45' W 013°44'510.7
2017-Nov-10 20:01N 27°49' W 013°40'510.4
2017-Nov-10 19:30N 27°53' W 013°36'510.2
2017-Nov-10 19:00N 27°57' W 013°32'510.3
2017-Nov-10 18:30N 28°01' W 013°28'1010.4
2017-Nov-10 17:31N 28°09' W 013°22'010.4
2017-Nov-10 17:30N 28°09' W 013°22'5 9.9
2017-Nov-10 17:00N 28°14' W 013°19'5 9.9
2017-Nov-10 16:30N 28°18' W 013°15'510.3
2017-Nov-10 16:00N 28°22' W 013°12'510.4
2017-Nov-10 15:30N 28°26' W 013°09'510.4
2017-Nov-10 15:00N 28°31' W 013°06'510.5
2017-Nov-10 14:30N 28°35' W 013°03'610.4
2017-Nov-10 13:57N 28°40' W 012°59'810.3
2017-Nov-10 13:10N 28°47' W 012°54'410.3
2017-Nov-10 12:48N 28°50' W 012°52'410.2
2017-Nov-10 12:24N 28°54' W 012°50'410.2
2017-Nov-10 12:01N 28°57' W 012°47'510.1
2017-Nov-10 11:29N 29°01' W 012°43'510.1
2017-Nov-10 11:00N 29°05' W 012°40'610.2
2017-Nov-10 10:23N 29°10' W 012°36'510.2
2017-Nov-10 09:53N 29°15' W 012°33'410.3
2017-Nov-10 09:30N 29°18' W 012°31'510.4
2017-Nov-10 09:00N 29°22' W 012°28'510.3
2017-Nov-10 08:30N 29°27' W 012°24'510.2
2017-Nov-10 08:00N 29°31' W 012°21'510.3
2017-Nov-10 07:29N 29°35' W 012°18'1210.4
2017-Nov-10 06:18N 29°45' W 012°09'4710.3
2017-Nov-10 01:42N 30°26' W 011°41'910.5
2017-Nov-10 00:48N 30°34' W 011°35'310.8
2017-Nov-10 00:31N 30°36' W 011°33'910.6
2017-Nov-09 23:41N 30°43' W 011°27'210.7
2017-Nov-09 23:30N 30°45' W 011°26'6810.6
2017-Nov-09 17:03N 31°42' W 010°42'010.2
2017-Nov-09 17:00N 31°42' W 010°42'810.0
2017-Nov-09 16:13N 31°49' W 010°37'310.1
2017-Nov-09 15:58N 31°51' W 010°36'2710.1
2017-Nov-09 13:17N 32°14' W 010°19'310.3
2017-Nov-09 13:00N 32°17' W 010°17'610.2
2017-Nov-09 12:25N 32°22' W 010°13'510.3
2017-Nov-09 11:55N 32°26' W 010°10'410.2
2017-Nov-09 11:30N 32°29' W 010°06'510.2
2017-Nov-09 11:00N 32°33' W 010°03'510.2
2017-Nov-09 10:29N 32°38' W 009°59'3410.4
2017-Nov-09 07:11N 33°05' W 009°35'710.2
2017-Nov-09 06:28N 33°10' W 009°28'510.2
2017-Nov-09 06:01N 33°13' W 009°24'610.3
2017-Nov-09 05:24N 33°18' W 009°19'610.4
2017-Nov-09 04:47N 33°22' W 009°14'251 6.7
2017-Nov-07 15:18N 36°08' W 005°25'0 0.0
2017-Nov-07 14:51N 36°08' W 005°25'0 0.1
2017-Nov-07 14:16N 36°08' W 005°25'1 2.6
2017-Nov-07 13:57N 36°09' W 005°25'1 2.1
2017-Nov-07 13:27N 36°08' W 005°26'0 0.0
2017-Nov-07 13:00N 36°08' W 005°26'0 0.0
2017-Nov-07 12:24N 36°08' W 005°26'0 0.0
2017-Nov-07 12:00N 36°08' W 005°26'0 0.0
2017-Nov-07 11:21N 36°08' W 005°26'0 0.0
2017-Nov-07 11:00N 36°08' W 005°26'0 0.0
2017-Nov-07 10:30N 36°08' W 005°26'0 0.0
2017-Nov-07 10:00N 36°08' W 005°26'0 0.0
2017-Nov-07 09:30N 36°08' W 005°26'0 0.0
2017-Nov-07 08:51N 36°08' W 005°26'0 0.0
2017-Nov-07 08:30N 36°08' W 005°26'0 0.0
2017-Nov-07 07:57N 36°08' W 005°26'0 0.0
2017-Nov-07 07:30N 36°08' W 005°26'8 0.2
2017-Nov-05 15:57N 36°01' W 005°22'  
2017-Nov-03 01:29N 27°50' W 013°39'  

Dump ship's entire track history